Time;durP1;ratioP1;P1;durP2;ratioP2;P2;SDS_P1;SDS_P2;PMS_P1;PMS_P2;Temp;Humidity;BMP_temperature;BMP_pressure;BME280_temperature;BME280_humidity;BME280_pressure;Samples;Min_cycle;Max_cycle;Signal;HPM_P1;HPM_P2
2022/12/04 00:01:16;;;;;;;25.65;12.88;;;0.90;99.90;;;;;;6225393;22;20020;-90
2022/12/04 00:04:20;;;;;;;31.40;13.77;;;-0.80;99.90;;;;;;6224825;22;20020;-90
2022/12/04 00:07:23;;;;;;;29.52;13.20;;;0.50;99.90;;;;;;6202771;22;20075;-90
2022/12/04 00:09:54;;;;;;;26.98;12.98;;;0.90;99.90;;;;;;6248751;22;20032;-90
2022/12/04 00:12:34;;;;;;;28.25;13.52;;;2.90;99.90;;;;;;6222725;22;20067;-90
2022/12/04 00:15:29;;;;;;;27.58;13.63;;;0.60;99.90;;;;;;6227453;22;20047;-90
2022/12/04 00:18:25;;;;;;;30.58;12.82;;;0.90;99.90;;;;;;6225060;22;20016;-91
2022/12/04 00:21:10;;;;;;;;;;;;;;;;;;;;;
2022/12/04 00:23:55;;;;;;;28.13;13.50;;;0.70;99.90;;;;;;6250103;22;20035;-90
2022/12/04 00:26:49;;;;;;;30.08;13.30;;;1.10;99.90;;;;;;6225825;22;20012;-91
2022/12/04 00:32:22;;;;;;;26.83;12.90;;;2.60;99.90;;;;;;6232719;22;20034;-90
2022/12/04 00:35:11;;;;;;;26.77;12.85;;;-1.30;99.90;;;;;;6250802;22;20069;-90
2022/12/04 00:37:56;;;;;;;24.02;11.65;;;2.30;99.90;;;;;;6227408;22;20023;-91
2022/12/04 00:41:10;;;;;;;29.17;12.90;;;0.60;99.90;;;;;;6226181;22;20486;-90
2022/12/04 00:43:41;;;;;;;24.55;12.07;;;-0.60;99.90;;;;;;6214324;22;20034;-89
2022/12/04 00:46:18;;;;;;;29.17;13.10;;;0.40;99.90;;;;;;6225782;22;20016;-90
2022/12/04 00:49:00;;;;;;;25.25;12.32;;;1.50;99.90;;;;;;6225754;22;20019;-90
2022/12/04 00:51:41;;;;;;;24.00;12.88;;;-0.20;99.90;;;;;;6203472;22;20054;-90
2022/12/04 00:54:17;;;;;;;24.67;13.00;;;0.10;99.90;;;;;;6250549;22;20015;-89
2022/12/04 00:56:58;;;;;;;24.08;11.82;;;0.00;99.90;;;;;;6225371;22;20020;-90
2022/12/04 00:59:43;;;;;;;26.20;11.80;;;2.30;99.90;;;;;;6182224;22;20338;-89
2022/12/04 01:02:19;;;;;;;22.83;11.30;;;-1.60;99.90;;;;;;6251508;22;20011;-90
2022/12/04 01:04:45;;;;;;;26.92;11.98;;;0.70;99.90;;;;;;6251228;22;20332;-89
2022/12/04 01:07:22;;;;;;;24.20;11.40;;;0.00;99.90;;;;;;6226587;22;20019;-89
2022/12/04 01:09:58;;;;;;;23.65;11.10;;;0.40;99.90;;;;;;6227934;22;20046;-90
2022/12/04 01:12:30;;;;;;;26.40;12.10;;;2.30;99.90;;;;;;6204050;22;20470;-91
2022/12/04 01:15:04;;;;;;;20.20;10.70;;;0.10;99.90;;;;;;6227050;22;20012;-90
2022/12/04 01:17:46;;;;;;;24.20;12.23;;;0.30;99.90;;;;;;6251352;22;20020;-90
2022/12/04 01:20:32;;;;;;;21.63;10.52;;;2.70;99.90;;;;;;6232813;22;20447;-89
2022/12/04 01:23:03;;;;;;;24.05;11.23;;;-1.50;99.90;;;;;;6225487;22;20102;-90
2022/12/04 01:25:32;;;;;;;25.48;11.95;;;;;;;;;;6201752;22;20030;-90
2022/12/04 01:28:11;;;;;;;24.25;11.55;;;0.10;99.90;;;;;;6225655;22;20024;-90
2022/12/04 01:30:42;;;;;;;21.38;10.93;;;0.80;99.90;;;;;;6225048;22;20015;-91
2022/12/04 01:33:30;;;;;;;;;;;;;;;;;;;;;
2022/12/04 01:36:21;;;;;;;23.42;10.65;;;0.70;99.90;;;;;;6231654;22;20016;-89
2022/12/04 01:38:51;;;;;;;23.73;12.20;;;1.90;99.90;;;;;;6225500;22;20451;-90
2022/12/04 01:41:33;;;;;;;22.23;11.15;;;-1.50;99.90;;;;;;6234609;22;20051;-91
2022/12/04 01:44:21;;;;;;;20.80;10.82;;;1.60;99.90;;;;;;6233687;22;20376;-90
2022/12/04 01:47:33;;;;;;;23.10;11.65;;;1.10;99.90;;;;;;6203463;23;20031;-91
2022/12/04 01:50:10;;;;;;;22.42;11.48;;;-1.20;99.90;;;;;;6179840;23;20028;-90
2022/12/04 01:52:36;;;;;;;20.95;10.98;;;;;;;;;;6222072;23;20070;-90
2022/12/04 01:55:09;;;;;;;19.55;10.07;;;-0.10;99.90;;;;;;6221820;23;20012;-90
2022/12/04 01:57:45;;;;;;;;;;;;;;;;;;;;;
2022/12/04 02:00:23;;;;;;;24.23;11.85;;;-0.10;99.90;;;;;;6198349;23;20047;-90
2022/12/04 02:03:11;;;;;;;23.00;11.43;;;-0.10;99.90;;;;;;6197714;23;20020;-90
2022/12/04 02:05:47;;;;;;;26.45;12.05;;;-1.00;99.90;;;;;;6198284;23;20027;-88
2022/12/04 02:08:22;;;;;;;26.35;13.00;;;0.00;99.90;;;;;;6173230;23;20020;-90
2022/12/04 02:11:18;;;;;;;24.35;11.90;;;0.00;99.90;;;;;;6172698;23;20027;-90
2022/12/04 02:13:50;;;;;;;;;;;0.50;99.90;;;;;;6196468;23;20047;-90
2022/12/04 02:16:39;;;;;;;26.65;11.48;;;0.50;99.90;;;;;;6195790;23;19919;-90
2022/12/04 02:22:39;;;;;;;21.67;11.23;;;0.10;99.90;;;;;;6222150;23;20016;-90
2022/12/04 02:25:42;;;;;;;24.10;11.75;;;0.50;99.90;;;;;;6223074;23;20016;-91
2022/12/04 02:28:38;;;;;;;29.23;13.35;;;0.30;99.90;;;;;;6196808;23;20020;-91
2022/12/04 02:31:12;;;;;;;22.80;11.98;;;0.20;99.90;;;;;;6221750;23;20028;-89
2022/12/04 02:33:59;;;;;;;25.90;11.53;;;1.10;99.90;;;;;;6195675;23;20019;-90
2022/12/04 02:36:44;;;;;;;;;;;0.60;99.90;;;;;;6220251;23;20074;-91
2022/12/04 02:39:24;;;;;;;21.80;10.82;;;-1.00;99.90;;;;;;6196325;23;19923;-90
2022/12/04 02:42:27;;;;;;;;;;;;;;;;;;;;;
2022/12/04 02:45:13;;;;;;;25.20;11.52;;;1.70;99.90;;;;;;6231123;22;20374;-90
2022/12/04 02:48:07;;;;;;;26.42;11.70;;;0.30;99.90;;;;;;6228110;22;20026;-89
2022/12/04 02:50:44;;;;;;;26.00;11.88;;;1.90;99.90;;;;;;6227818;22;20035;-89
2022/12/04 02:53:20;;;;;;;28.70;11.85;;;0.10;99.90;;;;;;6227237;22;20102;-90
2022/12/04 02:56:12;;;;;;;21.80;11.40;;;0.00;99.90;;;;;;6229210;22;20023;-90
2022/12/04 02:59:21;;;;;;;;;;;;;;;;;;;;;
2022/12/04 03:02:44;;;;;;;24.90;11.90;;;-1.10;99.90;;;;;;6278814;22;20023;-90
2022/12/04 03:05:24;;;;;;;23.65;11.93;;;-1.90;99.90;;;;;;6250199;22;20023;-90
2022/12/04 03:08:02;;;;;;;26.80;11.70;;;-0.20;99.90;;;;;;6202770;22;20026;-89
2022/12/04 03:11:09;;;;;;;27.35;11.98;;;-0.90;99.90;;;;;;6225920;22;20097;-91
2022/12/04 03:13:46;;;;;;;;;;;-1.50;99.90;;;;;;6212236;22;20012;-91
2022/12/04 03:16:24;;;;;;;25.30;11.65;;;-1.50;99.90;;;;;;6227126;22;19990;-90
2022/12/04 03:19:08;;;;;;;28.88;12.75;;;0.10;99.90;;;;;;6225987;22;20051;-90
2022/12/04 03:22:06;;;;;;;23.02;11.65;;;0.90;99.90;;;;;;6226897;22;20023;-90
2022/12/04 03:24:47;;;;;;;;;;;;;;;;;;;;;
2022/12/04 03:27:35;;;;;;;25.63;12.75;;;-0.40;99.90;;;;;;6253760;22;20023;-90
2022/12/04 03:30:11;;;;;;;25.27;12.68;;;-2.20;99.90;;;;;;6227799;22;20026;-92
2022/12/04 03:32:40;;;;;;;;;;;-0.30;99.90;;;;;;6228308;22;20039;-89
2022/12/04 03:35:36;;;;;;;23.27;11.18;;;0.30;99.90;;;;;;6226782;22;19919;-89
2022/12/04 03:38:16;;;;;;;24.50;12.13;;;-0.10;99.90;;;;;;6227883;22;20020;-90
2022/12/04 03:40:54;;;;;;;26.20;12.63;;;2.00;99.90;;;;;;6252000;22;20019;-90
2022/12/04 03:43:51;;;;;;;27.13;12.75;;;-0.30;99.90;;;;;;6227375;22;20020;-90
2022/12/04 03:46:34;;;;;;;28.40;12.75;;;-0.20;99.90;;;;;;6177137;22;20031;-91
2022/12/04 03:49:24;;;;;;;27.05;12.73;;;0.40;99.90;;;;;;6227977;22;20022;-90
2022/12/04 03:52:22;;;;;;;29.15;13.57;;;1.70;99.90;;;;;;6228212;22;20026;-91
2022/12/04 03:54:56;;;;;;;27.52;12.85;;;-0.40;99.90;;;;;;6228263;22;20011;-90
2022/12/04 03:57:29;;;;;;;25.17;12.73;;;1.20;99.90;;;;;;6227409;22;20011;-90
2022/12/04 04:00:12;;;;;;;28.13;12.57;;;1.70;99.90;;;;;;6252782;22;20024;-90
2022/12/04 04:03:07;;;;;;;28.23;13.93;;;-0.20;99.90;;;;;;6226992;22;20019;-90
2022/12/04 04:05:40;;;;;;;27.83;11.88;;;1.30;99.90;;;;;;6207785;22;20016;-91
2022/12/04 04:08:25;;;;;;;29.17;12.65;;;1.80;99.90;;;;;;6226813;22;20020;-90
2022/12/04 04:11:19;;;;;;;;;;;;;;;;;;;;;
2022/12/04 04:26:03;;;;;;;27.27;12.48;;;1.30;99.90;;;;;;6251024;22;20016;-89
2022/12/04 04:28:53;;;;;;;25.52;12.32;;;0.10;99.90;;;;;;6204494;22;20047;-90
2022/12/04 04:31:54;;;;;;;25.40;12.85;;;0.20;99.90;;;;;;6227027;22;20023;-90
2022/12/04 04:34:49;;;;;;;26.88;12.55;;;0.20;99.90;;;;;;6227720;22;20012;-90
2022/12/04 04:37:35;;;;;;;31.08;14.27;;;0.00;99.90;;;;;;6227811;22;20016;-90
2022/12/04 04:40:22;;;;;;;;;;;0.30;99.90;;;;;;6251437;22;20016;-91
2022/12/04 04:43:16;;;;;;;24.92;11.77;;;0.10;99.90;;;;;;6222350;22;19915;-91
2022/12/04 04:46:39;;;;;;;28.10;13.43;;;0.20;99.90;;;;;;6222381;22;20015;-90
2022/12/04 04:49:11;;;;;;;31.13;14.00;;;0.20;99.90;;;;;;6071740;23;20157;-89
2022/12/04 04:51:38;;;;;;;29.88;14.35;;;;;;;;;;6071338;23;20045;-89
2022/12/04 04:54:12;;;;;;;33.63;14.70;;;0.10;99.90;;;;;;6167282;22;20019;-89
2022/12/04 04:56:43;;;;;;;27.85;14.70;;;0.40;99.90;;;;;;6220761;22;20494;-89
2022/12/04 04:59:12;;;;;;;28.40;12.65;;;2.50;99.90;;;;;;6220799;22;20088;-90
2022/12/04 05:01:49;;;;;;;29.25;14.85;;;1.90;99.90;;;;;;6221427;22;20019;-88
2022/12/04 05:04:23;;;;;;;30.67;14.50;;;2.50;99.90;;;;;;6223410;22;20019;-89
2022/12/04 05:06:54;;;;;;;30.58;15.23;;;-0.30;99.90;;;;;;6222033;22;20029;-89
2022/12/04 05:09:27;;;;;;;32.58;14.77;;;0.90;99.90;;;;;;6219315;22;20020;-89
2022/12/04 05:11:58;;;;;;;29.17;14.68;;;1.50;99.90;;;;;;6245535;22;20019;-89
2022/12/04 05:14:49;;;;;;;33.00;15.25;;;-1.40;99.90;;;;;;6246271;22;20023;-91
2022/12/04 05:17:20;;;;;;;32.95;15.15;;;2.50;99.90;;;;;;6197095;22;20449;-90
2022/12/04 05:20:01;;;;;;;30.27;14.68;;;2.40;99.90;;;;;;6221315;22;20016;-88
2022/12/04 05:22:33;;;;;;;29.27;13.88;;;0.50;99.90;;;;;;6197179;22;20126;-89
2022/12/04 05:25:09;;;;;;;30.33;14.60;;;0.60;99.90;;;;;;6246254;22;20048;-88
2022/12/04 05:27:50;;;;;;;30.85;14.85;;;0.30;99.90;;;;;;6247338;22;20392;-90
2022/12/04 05:30:21;;;;;;;32.88;16.13;;;0.40;99.90;;;;;;6198272;22;20043;-91
2022/12/04 05:32:50;;;;;;;34.33;14.90;;;0.20;99.90;;;;;;6197810;22;20019;-89
2022/12/04 05:35:48;;;;;;;;;;;;;;;;;;;;;
2022/12/04 05:38:44;;;;;;;31.83;14.82;;;0.30;99.90;;;;;;6185543;22;20019;-92
2022/12/04 05:41:42;;;;;;;;;;;;;;;;;;;;;
2022/12/04 05:44:15;;;;;;;30.10;14.88;;;2.00;99.90;;;;;;6254503;22;20027;-91
2022/12/04 05:46:52;;;;;;;36.42;16.92;;;;;;;;;;6231352;22;20020;-89
2022/12/04 05:49:30;;;;;;;32.28;16.13;;;0.30;99.90;;;;;;6255742;22;20447;-89
2022/12/04 05:54:57;;;;;;;36.90;17.48;;;1.00;99.90;;;;;;6185990;22;20085;-89
2022/12/04 05:57:35;;;;;;;33.38;16.83;;;1.00;99.90;;;;;;6222393;22;20435;-88
2022/12/04 06:00:21;;;;;;;33.08;16.65;;;0.30;99.90;;;;;;6176891;22;20019;-89
2022/12/04 06:05:44;;;;;;;34.60;16.70;;;0.60;99.90;;;;;;6245284;22;20024;-91
2022/12/04 06:08:16;;;;;;;36.17;15.80;;;1.10;99.90;;;;;;6220550;22;20436;-90
2022/12/04 06:13:57;;;;;;;;;;;;;;;;;;;;;
2022/12/04 06:16:31;;;;;;;32.83;16.95;;;2.60;99.90;;;;;;6222098;22;20371;-88
2022/12/04 06:19:08;;;;;;;35.85;16.48;;;1.80;99.90;;;;;;6221304;22;20030;-90
2022/12/04 06:22:06;;;;;;;32.33;17.05;;;0.80;99.90;;;;;;6219295;22;20016;-91
2022/12/04 06:24:35;;;;;;;34.85;17.63;;;-0.10;99.90;;;;;;6180983;22;20019;-89
2022/12/04 06:27:01;;;;;;;36.67;16.98;;;;;;;;;;6218546;22;20023;-90
2022/12/04 06:29:31;;;;;;;35.38;17.08;;;0.30;99.90;;;;;;6219330;22;20023;-90
2022/12/04 06:31:57;;;;;;;38.42;18.52;;;0.30;99.90;;;;;;6218773;22;20020;-89
2022/12/04 06:34:31;;;;;;;32.97;18.20;;;-0.50;99.90;;;;;;6219897;22;20153;-89
2022/12/04 06:36:59;;;;;;;36.97;17.55;;;0.50;99.90;;;;;;6218300;22;20277;-90
2022/12/04 06:39:30;;;;;;;38.13;17.65;;;1.00;99.90;;;;;;6194190;22;20024;-90
2022/12/04 06:42:02;;;;;;;38.53;18.17;;;2.20;99.90;;;;;;6194058;22;20103;-90
2022/12/04 06:47:24;;;;;;;38.40;17.20;;;1.80;99.90;;;;;;6245170;22;20019;-89
2022/12/04 06:49:54;;;;;;;39.28;18.52;;;2.20;99.90;;;;;;6221673;22;20022;-89
2022/12/04 06:52:33;;;;;;;38.10;17.08;;;1.90;99.90;;;;;;6223330;22;20047;-88
2022/12/04 06:55:22;;;;;;;34.53;16.48;;;-0.40;99.90;;;;;;6221040;22;20439;-90
2022/12/04 06:58:19;;;;;;;37.83;17.75;;;0.70;99.90;;;;;;6231522;22;20032;-90
2022/12/04 07:01:32;;;;;;;38.45;17.15;;;2.00;99.90;;;;;;6219511;22;20058;-90
2022/12/04 07:07:43;;;;;;;36.40;17.05;;;-0.70;99.90;;;;;;6075695;23;20512;-89
2022/12/04 07:10:28;;;;;;;38.30;18.80;;;0.30;99.90;;;;;;6154173;23;20111;-90
2022/12/04 07:23:36;;;;;;;33.90;16.65;;;0.40;99.90;;;;;;6207362;22;20023;-89
2022/12/04 07:26:48;;;;;;;36.05;16.90;;;0.70;99.90;;;;;;6219168;22;20019;-89
2022/12/04 07:29:26;;;;;;;35.72;17.50;;;2.00;99.90;;;;;;6221044;22;20069;-88
2022/12/04 07:32:07;;;;;;;33.08;17.35;;;0.60;99.90;;;;;;6220434;22;20482;-88
2022/12/04 07:34:51;;;;;;;39.60;18.42;;;1.90;99.90;;;;;;6220650;22;20015;-90
2022/12/04 07:37:21;;;;;;;39.10;18.52;;;-0.70;99.90;;;;;;6195623;22;20019;-88
2022/12/04 07:39:52;;;;;;;35.30;18.23;;;-1.60;99.90;;;;;;6218555;22;20098;-89
2022/12/04 07:42:31;;;;;;;37.17;18.80;;;2.10;99.90;;;;;;6219524;22;20041;-87
2022/12/04 07:45:04;;;;;;;38.92;20.48;;;0.70;99.90;;;;;;6245953;22;20019;-88
2022/12/04 07:48:31;;;;;;;;;;;;;;;;;;;;;
2022/12/04 07:51:48;;;;;;;;;;;;;;;;;;;;;
2022/12/04 07:54:36;;;;;;;;;;;;;;;;;;;;;
2022/12/04 07:59:56;;;;;;;35.10;16.80;;;3.10;99.90;;;;;;6168838;22;20102;-87
2022/12/04 08:02:35;;;;;;;37.38;16.67;;;2.40;99.90;;;;;;6220774;22;20022;-91
2022/12/04 08:05:10;;;;;;;35.60;17.35;;;0.70;99.90;;;;;;6196957;22;20018;-88
2022/12/04 08:07:36;;;;;;;33.90;16.17;;;;;;;;;;6194480;22;20012;-86
2022/12/04 08:10:02;;;;;;;34.97;17.02;;;0.60;99.90;;;;;;6219983;22;20023;-86
2022/12/04 08:12:33;;;;;;;35.20;17.33;;;0.50;99.90;;;;;;6243656;22;20026;-87
2022/12/04 08:14:59;;;;;;;34.63;16.05;;;1.20;99.90;;;;;;6244278;22;20103;-87
2022/12/04 08:17:33;;;;;;;33.38;16.95;;;-0.50;99.90;;;;;;6219552;22;20058;-86
2022/12/04 08:19:59;;;;;;;32.47;16.60;;;0.60;99.90;;;;;;6196593;22;20031;-86
2022/12/04 08:22:27;;;;;;;33.90;17.98;;;-0.50;99.90;;;;;;6220309;22;20019;-88
2022/12/04 08:24:55;;;;;;;33.55;15.75;;;1.50;99.90;;;;;;6220759;22;20022;-87
2022/12/04 08:27:24;;;;;;;31.27;16.35;;;2.40;99.90;;;;;;6220234;22;20077;-88
2022/12/04 08:29:50;;;;;;;34.38;16.50;;;2.30;99.90;;;;;;6245318;22;20023;-87
2022/12/04 08:32:15;;;;;;;33.70;16.33;;;0.90;99.90;;;;;;6219054;22;20081;-86
2022/12/04 08:34:41;;;;;;;31.67;16.13;;;2.50;99.90;;;;;;6219586;22;20564;-87
2022/12/04 08:37:08;;;;;;;31.05;15.98;;;0.80;99.90;;;;;;6220327;22;20019;-88
2022/12/04 08:39:36;;;;;;;30.85;16.55;;;0.90;99.90;;;;;;6220011;22;20466;-88
2022/12/04 08:42:02;;;;;;;33.53;17.48;;;1.00;99.90;;;;;;6219734;22;20020;-88
2022/12/04 08:44:28;;;;;;;36.75;17.88;;;0.80;99.90;;;;;;6219384;22;20046;-87
2022/12/04 08:47:12;;;;;;;39.63;18.95;;;0.80;99.90;;;;;;6221542;22;20020;-89
2022/12/04 08:49:43;;;;;;;32.85;16.48;;;2.90;99.90;;;;;;6195025;22;20016;-88
2022/12/04 08:52:27;;;;;;;32.90;16.33;;;0.80;99.90;;;;;;6220778;22;20030;-89
2022/12/04 08:54:55;;;;;;;34.88;16.98;;;2.30;99.90;;;;;;6198288;22;20090;-90
2022/12/04 08:57:23;;;;;;;36.60;16.95;;;3.20;99.90;;;;;;6196131;22;20015;-89
2022/12/04 09:00:07;;;;;;;34.70;16.60;;;1.10;99.90;;;;;;6218674;22;20504;-89
2022/12/04 09:02:38;;;;;;;34.60;15.95;;;0.80;99.90;;;;;;6195617;22;20019;-90
2022/12/04 09:05:16;;;;;;;38.20;17.90;;;1.20;99.90;;;;;;6245292;22;20020;-90
2022/12/04 09:08:02;;;;;;;36.78;17.58;;;-0.70;99.90;;;;;;6245047;22;20062;-89
2022/12/04 09:10:34;;;;;;;36.08;17.27;;;3.00;99.90;;;;;;6245372;22;20157;-89
2022/12/04 09:13:04;;;;;;;32.33;16.35;;;1.10;99.90;;;;;;6220258;22;20106;-88
2022/12/04 09:15:37;;;;;;;31.23;16.92;;;1.50;99.90;;;;;;6246650;22;20354;-88
2022/12/04 09:18:08;;;;;;;;;;;0.80;99.90;;;;;;6223578;22;20022;-89
2022/12/04 09:20:39;;;;;;;34.13;17.85;;;0.40;99.90;;;;;;6197730;22;19915;-88
2022/12/04 09:23:05;;;;;;;37.10;17.98;;;3.20;99.90;;;;;;6195631;22;20024;-89
2022/12/04 09:25:51;;;;;;;32.72;16.77;;;-0.50;99.90;;;;;;6220455;22;20042;-91
2022/12/04 09:28:30;;;;;;;32.70;16.50;;;3.20;99.90;;;;;;6245275;22;20016;-86
2022/12/04 09:31:07;;;;;;;33.70;17.25;;;-0.40;99.90;;;;;;6222015;22;20027;-88
2022/12/04 09:33:33;;;;;;;38.70;17.55;;;1.00;99.90;;;;;;6245530;22;20023;-87
2022/12/04 09:36:00;;;;;;;33.00;17.80;;;1.00;99.90;;;;;;6218865;22;20518;-87
2022/12/04 09:38:29;;;;;;;32.47;16.50;;;1.40;99.90;;;;;;6245768;22;20019;-89
2022/12/04 09:41:10;;;;;;;37.08;18.13;;;1.20;99.90;;;;;;6227300;22;20019;-88
2022/12/04 09:43:42;;;;;;;36.83;16.70;;;1.20;99.90;;;;;;6225784;22;20023;-89
2022/12/04 09:47:07;;;;;;;34.92;17.48;;;1.40;99.90;;;;;;6251522;22;20388;-88
2022/12/04 09:50:12;;;;;;;;;;;;;;;;;;;;;
2022/12/04 09:52:55;;;;;;;34.83;17.02;;;1.40;99.90;;;;;;6239290;22;20049;-89
2022/12/04 09:55:32;;;;;;;30.50;15.52;;;3.10;99.90;;;;;;6219349;22;20505;-89
2022/12/04 09:58:01;;;;;;;33.20;16.17;;;3.10;99.90;;;;;;6218896;22;20020;-88
2022/12/04 10:00:39;;;;;;;;;;;;;;;;;;;;;
2022/12/04 10:03:15;;;;;;;32.55;16.65;;;0.40;99.90;;;;;;6243890;22;20020;-89
2022/12/04 10:06:02;;;;;;;35.78;16.88;;;3.30;99.90;;;;;;6217806;22;20012;-89
2022/12/04 10:08:50;;;;;;;33.17;16.73;;;3.40;99.90;;;;;;6219950;22;20399;-88
2022/12/04 10:11:24;;;;;;;33.35;16.15;;;2.90;99.90;;;;;;6217286;22;20026;-89
2022/12/04 10:14:14;;;;;;;33.10;17.17;;;1.20;99.90;;;;;;6218664;22;20016;-89
2022/12/04 10:16:49;;;;;;;31.08;15.63;;;1.60;99.90;;;;;;6244941;22;20024;-88
2022/12/04 10:19:36;;;;;;;36.47;17.50;;;3.40;99.90;;;;;;6219012;22;20103;-88
2022/12/04 10:22:08;;;;;;;;;;;1.60;99.90;;;;;;6245569;22;20093;-89
2022/12/04 10:25:00;;;;;;;35.78;16.77;;;1.30;99.90;;;;;;6220410;22;19926;-89
2022/12/04 10:27:46;;;;;;;32.50;16.30;;;1.30;99.90;;;;;;6220540;22;20019;-89
2022/12/04 10:30:21;;;;;;;32.85;16.35;;;1.40;99.90;;;;;;6245726;22;20022;-89
2022/12/04 10:33:02;;;;;;;37.45;17.58;;;1.20;99.90;;;;;;6221016;22;20026;-89
2022/12/04 10:35:31;;;;;;;38.00;17.45;;;0.50;99.90;;;;;;6246081;22;20099;-88
2022/12/04 10:38:11;;;;;;;30.52;17.05;;;3.60;99.90;;;;;;6220615;22;20019;-87
2022/12/04 10:40:47;;;;;;;32.40;16.58;;;1.10;99.90;;;;;;6221652;22;20024;-88
2022/12/04 10:43:22;;;;;;;;;;;1.50;99.90;;;;;;6222764;22;20073;-89
2022/12/04 10:45:51;;;;;;;29.38;15.38;;;1.50;99.90;;;;;;6219232;22;20413;-89
2022/12/04 10:48:40;;;;;;;30.73;15.63;;;1.40;99.90;;;;;;6220030;22;20131;-88
2022/12/04 10:51:23;;;;;;;32.72;16.15;;;2.10;99.90;;;;;;6220602;22;20016;-88
2022/12/04 10:53:51;;;;;;;30.33;15.57;;;2.00;99.90;;;;;;6220638;22;20517;-88
2022/12/04 10:56:26;;;;;;;32.80;16.63;;;1.80;99.90;;;;;;6221621;22;20019;-88
2022/12/04 10:59:07;;;;;;;31.38;15.25;;;1.60;99.90;;;;;;6247229;22;20027;-88
2022/12/04 11:01:35;;;;;;;31.30;15.52;;;3.50;99.90;;;;;;6246342;22;20016;-88
2022/12/04 11:04:36;;;;;;;30.20;15.73;;;1.60;99.90;;;;;;6195355;22;20039;-88
2022/12/04 11:07:05;;;;;;;31.88;16.63;;;3.90;99.90;;;;;;6246133;22;20019;-87
2022/12/04 11:09:32;;;;;;;31.92;15.90;;;2.10;99.90;;;;;;6220296;22;20091;-88
2022/12/04 11:12:33;;;;;;;31.15;15.90;;;0.80;99.90;;;;;;6219849;22;20016;-88
2022/12/04 11:15:05;;;;;;;30.92;15.63;;;4.00;99.90;;;;;;6220050;22;20019;-89
2022/12/04 11:17:33;;;;;;;29.50;15.90;;;2.10;99.90;;;;;;6219073;22;20046;-88
2022/12/04 11:20:05;;;;;;;29.25;14.70;;;3.00;99.90;;;;;;6219323;22;20030;-87
2022/12/04 11:22:48;;;;;;;29.27;15.45;;;1.30;99.90;;;;;;6220909;22;20022;-88
2022/12/04 11:25:20;;;;;;;27.38;14.38;;;3.60;99.90;;;;;;6221731;22;20386;-88
2022/12/04 11:27:57;;;;;;;27.55;14.88;;;1.90;99.90;;;;;;6220092;22;20020;-88
2022/12/04 11:30:48;;;;;;;27.38;14.45;;;3.80;99.90;;;;;;6224392;22;20019;-88
2022/12/04 11:34:03;;;;;;;27.50;13.63;;;1.90;99.90;;;;;;6224992;22;20015;-88
2022/12/04 11:36:45;;;;;;;;;;;;;;;;;;;;;
2022/12/04 11:40:17;;;;;;;22.83;12.55;;;2.50;99.90;;;;;;6248410;22;20020;-88
2022/12/04 11:43:11;;;;;;;24.95;12.88;;;2.30;99.90;;;;;;6274119;22;20467;-87
2022/12/04 11:45:40;;;;;;;24.35;13.20;;;2.20;99.90;;;;;;6221426;22;20023;-87
2022/12/04 11:48:21;;;;;;;23.52;12.60;;;2.10;99.90;;;;;;6221245;22;20031;-87
2022/12/04 11:50:59;;;;;;;26.98;14.55;;;2.20;99.90;;;;;;6244157;22;20015;-84
2022/12/04 11:53:43;;;;;;;25.25;13.20;;;2.50;99.90;;;;;;6221020;22;20019;-87
2022/12/04 11:56:39;;;;;;;24.95;12.45;;;2.80;99.90;;;;;;6219396;22;20073;-88
2022/12/04 11:59:37;;;;;;;25.42;13.35;;;2.50;99.90;;;;;;6217371;22;20022;-88
2022/12/04 12:02:19;;;;;;;24.25;12.10;;;2.60;99.90;;;;;;6217876;22;20025;-87
2022/12/04 12:04:51;;;;;;;21.35;12.07;;;2.20;99.90;;;;;;6217256;22;20016;-86
2022/12/04 12:07:41;;;;;;;22.83;12.15;;;4.20;99.90;;;;;;6216429;22;20070;-88
2022/12/04 12:10:47;;;;;;;;;;;;;;;;;;;;;
2022/12/04 12:13:44;;;;;;;19.40;9.98;;;3.90;99.90;;;;;;6230300;22;20015;-87
2022/12/04 12:19:57;;;;;;;20.63;10.52;;;2.30;99.90;;;;;;6151109;23;20103;-87
2022/12/04 12:22:59;;;;;;;19.23;10.13;;;2.30;99.90;;;;;;6218172;22;20023;-87
2022/12/04 12:26:10;;;;;;;17.77;10.18;;;2.30;99.90;;;;;;6218442;22;20015;-87
2022/12/04 12:29:12;;;;;;;15.93;9.32;;;2.60;99.90;;;;;;6217683;22;20024;-86
2022/12/04 12:31:41;;;;;;;15.90;9.10;;;;;;;;;;6217291;22;20142;-85
2022/12/04 12:35:03;;;;;;;17.52;8.85;;;2.40;99.90;;;;;;6218009;22;20011;-87
2022/12/04 12:38:10;;;;;;;14.68;8.23;;;2.40;99.90;;;;;;6210025;22;20027;-88
2022/12/04 12:40:45;;;;;;;17.00;8.55;;;2.60;99.90;;;;;;6215752;22;20510;-88
2022/12/04 12:43:22;;;;;;;13.38;8.20;;;2.50;99.90;;;;;;6215146;22;20081;-86
2022/12/04 12:46:29;;;;;;;13.05;7.82;;;2.40;99.90;;;;;;6216712;22;20030;-88
2022/12/04 12:49:11;;;;;;;15.75;8.23;;;1.00;99.90;;;;;;6217749;22;20478;-85
2022/12/04 12:52:02;;;;;;;13.57;7.80;;;2.40;99.90;;;;;;6215865;22;20024;-87
2022/12/04 12:54:54;;;;;;;15.00;7.97;;;2.70;99.90;;;;;;6240804;22;20015;-87
2022/12/04 12:57:33;;;;;;;14.70;7.65;;;2.40;99.90;;;;;;6242805;22;20065;-88
2022/12/04 13:00:20;;;;;;;13.05;7.72;;;2.30;99.90;;;;;;6215390;22;20391;-88
2022/12/04 13:03:11;;;;;;;15.73;7.90;;;2.40;99.90;;;;;;6242900;22;20027;-88
2022/12/04 13:05:43;;;;;;;14.07;8.38;;;2.30;99.90;;;;;;6217428;22;20015;-87
2022/12/04 13:08:38;;;;;;;;;;;;;;;;;;;;;
2022/12/04 13:11:17;;;;;;;16.50;9.30;;;2.50;99.90;;;;;;6241216;22;20012;-88
2022/12/04 13:14:04;;;;;;;14.55;8.65;;;2.60;99.90;;;;;;6216284;22;20024;-89
2022/12/04 13:16:41;;;;;;;15.95;8.80;;;2.00;99.90;;;;;;6217279;22;20028;-87
2022/12/04 13:19:42;;;;;;;16.35;8.93;;;2.20;99.90;;;;;;6213717;22;20020;-88
2022/12/04 13:22:27;;;;;;;16.08;9.13;;;2.30;99.90;;;;;;6221104;22;20019;-86
2022/12/04 13:25:10;;;;;;;16.25;9.27;;;2.90;99.90;;;;;;6216624;22;20019;-87
2022/12/04 13:28:06;;;;;;;14.35;8.25;;;2.50;99.90;;;;;;6215925;22;20074;-86
2022/12/04 13:30:55;;;;;;;12.52;7.10;;;2.40;99.90;;;;;;6217421;22;20385;-88
2022/12/04 13:33:53;;;;;;;14.52;8.02;;;2.40;99.90;;;;;;6212805;22;20016;-87
2022/12/04 13:36:52;;;;;;;13.80;8.30;;;2.30;99.90;;;;;;6238172;22;20311;-87
2022/12/04 13:39:49;;;;;;;14.73;8.23;;;2.60;99.90;;;;;;6215060;22;20024;-86
2022/12/04 13:42:53;;;;;;;16.75;8.48;;;1.70;99.90;;;;;;6214829;22;20101;-88
2022/12/04 13:45:37;;;;;;;14.45;7.97;;;2.90;99.90;;;;;;6227219;22;20016;-88
2022/12/04 13:48:06;;;;;;;14.07;8.40;;;2.60;99.90;;;;;;6215056;22;20020;-88
2022/12/04 13:50:41;;;;;;;13.68;8.30;;;2.30;99.90;;;;;;6215768;22;20122;-87
2022/12/04 13:53:39;;;;;;;15.23;9.10;;;2.40;99.90;;;;;;6215408;22;20027;-88
2022/12/04 13:56:28;;;;;;;15.63;9.07;;;2.50;99.90;;;;;;6239363;22;20535;-87
2022/12/04 13:59:21;;;;;;;17.73;9.30;;;2.40;99.90;;;;;;6215784;22;20078;-88
2022/12/04 14:01:55;;;;;;;15.50;9.27;;;2.60;99.90;;;;;;6217523;22;20348;-89
2022/12/04 14:04:47;;;;;;;17.58;9.70;;;2.50;99.90;;;;;;6217846;22;20019;-87
2022/12/04 14:07:27;;;;;;;16.30;8.82;;;4.20;99.90;;;;;;6241926;22;20462;-88
2022/12/04 14:10:07;;;;;;;17.73;9.93;;;0.90;99.90;;;;;;6242394;22;20308;-87
2022/12/04 14:12:42;;;;;;;17.58;10.02;;;2.80;99.90;;;;;;6241346;22;20537;-87
2022/12/04 14:15:41;;;;;;;18.02;10.18;;;2.40;99.90;;;;;;6218026;22;20447;-88
2022/12/04 14:18:19;;;;;;;17.15;10.40;;;2.70;99.90;;;;;;6191351;22;20617;-87
2022/12/04 14:21:04;;;;;;;18.75;9.75;;;4.50;99.90;;;;;;6217568;22;20020;-88
2022/12/04 14:24:08;;;;;;;20.02;10.48;;;2.70;99.90;;;;;;6241342;22;20019;-87
2022/12/04 14:27:15;;;;;;;16.90;9.95;;;2.50;99.90;;;;;;6217502;22;20054;-88
2022/12/04 14:30:08;;;;;;;;;;;;;;;;;;;;;
2022/12/04 14:33:03;;;;;;;16.17;9.23;;;4.10;99.90;;;;;;6243477;22;20020;-88
2022/12/04 14:35:42;;;;;;;;;;;;;;;;;;;;;
2022/12/04 14:38:39;;;;;;;16.98;9.88;;;4.60;99.90;;;;;;6242121;22;20022;-89
2022/12/04 14:41:11;;;;;;;15.07;9.60;;;1.30;99.90;;;;;;6241202;22;20011;-88
2022/12/04 14:43:48;;;;;;;17.83;9.93;;;3.00;99.90;;;;;;6192368;22;20019;-87
2022/12/04 14:46:21;;;;;;;19.10;9.80;;;2.50;99.90;;;;;;6215894;22;20082;-87
2022/12/04 14:49:02;;;;;;;17.92;8.95;;;4.10;99.90;;;;;;6218316;22;20103;-88
2022/12/04 14:51:52;;;;;;;16.23;9.18;;;2.40;99.90;;;;;;6216920;22;20027;-86
2022/12/04 14:54:26;;;;;;;18.65;9.35;;;2.50;99.90;;;;;;6216766;22;20019;-88
2022/12/04 14:57:02;;;;;;;17.35;9.43;;;2.70;99.90;;;;;;6217676;22;20026;-89
2022/12/04 14:59:51;;;;;;;16.13;8.70;;;2.20;99.90;;;;;;6217494;22;20106;-87
2022/12/04 15:02:35;;;;;;;20.38;10.38;;;2.80;99.90;;;;;;6217760;22;20030;-89
2022/12/04 15:05:02;;;;;;;16.98;9.38;;;2.70;99.90;;;;;;6193827;22;20034;-88
2022/12/04 15:07:33;;;;;;;17.90;9.55;;;2.50;99.90;;;;;;6191990;22;20023;-87
2022/12/04 15:13:32;;;;;;;18.63;9.82;;;2.50;99.90;;;;;;6240854;22;20016;-88
2022/12/04 15:16:27;;;;;;;16.23;9.23;;;3.80;99.90;;;;;;6216512;22;20019;-87
2022/12/04 15:19:20;;;;;;;18.20;9.25;;;2.80;99.90;;;;;;6216632;22;20024;-88